createdAt,value
2022-11-25T00:01:36.841Z,96857.94
2022-11-25T00:04:05.927Z,96864.81
2022-11-25T00:06:36.990Z,96855.66
2022-11-25T00:09:08.856Z,96853.06
2022-11-25T00:11:39.853Z,96857.59
2022-11-25T00:14:12.778Z,96849.72
2022-11-25T00:16:46.701Z,96848.44
2022-11-25T00:19:18.012Z,96821.78
2022-11-25T00:21:46.875Z,96840.25
2022-11-25T00:24:17.219Z,96835.59
2022-11-25T00:26:46.081Z,96834.50
2022-11-25T00:29:15.062Z,96827.56
2022-11-25T00:31:44.474Z,96827.91
2022-11-25T00:34:15.168Z,96827.91
2022-11-25T00:36:44.083Z,96823.88
2022-11-25T00:39:15.834Z,96818.13
2022-11-25T00:42:03.862Z,96820.38
2022-11-25T00:44:42.149Z,96815.06
2022-11-25T00:47:15.291Z,96816.00
2022-11-25T00:49:46.894Z,96814.09
2022-11-25T00:52:25.110Z,96811.38
2022-11-25T00:54:55.319Z,96810.75
2022-11-25T00:57:25.194Z,96800.59
2022-11-25T00:59:54.918Z,96775.22
2022-11-25T01:02:24.823Z,96796.91
2022-11-25T01:04:53.985Z,96785.66
2022-11-25T01:07:22.863Z,96801.69
2022-11-25T01:09:51.727Z,96800.25
2022-11-25T01:12:20.573Z,96793.31
2022-11-25T01:14:49.397Z,96800.25
2022-11-25T01:17:18.180Z,96785.13
2022-11-25T01:19:47.043Z,96778.53
2022-11-25T01:22:15.882Z,96775.28
2022-11-25T01:24:44.700Z,96778.19
2022-11-25T01:27:13.518Z,96764.38
2022-11-25T01:29:43.790Z,96764.03
2022-11-25T01:32:15.169Z,96761.28
2022-11-25T01:34:44.306Z,96764.00
2022-11-25T01:37:13.390Z,96759.97
2022-11-25T01:39:42.430Z,96752.72
2022-11-25T01:42:11.241Z,96754.16
2022-11-25T01:44:43.384Z,96740.34
2022-11-25T01:47:19.663Z,96743.84
2022-11-25T01:49:57.005Z,96730.59
2022-11-25T01:52:36.729Z,96728.50
2022-11-25T01:55:16.844Z,96732.00
2022-11-25T01:58:01.318Z,96731.81
2022-11-25T02:00:31.172Z,96729.34
2022-11-25T02:03:00.485Z,96723.84
2022-11-25T02:05:47.789Z,96726.56
2022-11-25T02:08:17.752Z,96712.72
2022-11-25T02:10:47.229Z,96718.47
2022-11-25T02:13:16.428Z,96710.22
2022-11-25T02:15:45.353Z,96702.91
2022-11-25T02:18:14.315Z,96706.50
2022-11-25T02:20:43.620Z,96699.78
2022-11-25T02:23:49.920Z,96689.56
2022-11-25T02:26:19.246Z,96679.97
2022-11-25T02:28:51.035Z,96679.13
2022-11-25T02:31:24.362Z,96685.78
2022-11-25T02:33:53.885Z,96679.91
2022-11-25T02:36:23.906Z,96673.50
2022-11-25T02:38:57.471Z,96678.25
2022-11-25T02:41:34.119Z,96680.56
2022-11-25T02:44:06.398Z,96675.47
2022-11-25T02:46:35.467Z,96675.19
2022-11-25T02:49:09.722Z,96665.75
2022-11-25T02:51:42.172Z,96669.72
2022-11-25T02:54:12.763Z,96665.28
2022-11-25T02:56:41.719Z,96652.00
2022-11-25T02:59:11.483Z,96655.84
2022-11-25T03:01:41.521Z,96645.59
2022-11-25T03:04:12.110Z,96636.91
2022-11-25T03:06:40.986Z,96634.56
2022-11-25T03:09:09.904Z,96632.16
2022-11-25T03:11:58.811Z,96646.50
2022-11-25T03:14:27.697Z,96637.78
2022-11-25T03:16:56.666Z,96636.06
2022-11-25T03:19:28.745Z,96627.38
2022-11-25T03:21:57.649Z,96630.38
2022-11-25T03:24:26.511Z,96625.63
2022-11-25T03:26:55.350Z,96619.69
2022-11-25T03:29:24.601Z,96601.59
2022-11-25T03:31:53.597Z,96605.41
2022-11-25T03:34:23.310Z,96606.09
2022-11-25T03:36:52.573Z,96604.28
2022-11-25T03:39:21.727Z,96592.59
2022-11-25T03:41:50.976Z,96591.41
2022-11-25T03:44:21.362Z,96591.41
2022-11-25T03:46:50.113Z,96588.69
2022-11-25T03:49:19.342Z,96580.78
2022-11-25T03:51:48.999Z,96575.25
2022-11-25T03:54:19.808Z,96569.94
2022-11-25T03:57:06.850Z,96562.19
2022-11-25T03:59:37.263Z,96555.81
2022-11-25T04:02:06.450Z,96556.03
2022-11-25T04:04:37.496Z,96550.09
2022-11-25T04:07:06.996Z,96553.78
2022-11-25T04:09:36.250Z,96551.56
2022-11-25T04:12:26.576Z,96539.22
2022-11-25T04:15:00.423Z,96535.66
2022-11-25T04:17:32.122Z,96537.22
2022-11-25T04:20:01.231Z,96523.69
2022-11-25T04:22:32.270Z,96527.13
2022-11-25T04:25:03.155Z,96522.53
2022-11-25T04:27:32.269Z,96516.19
2022-11-25T04:30:01.220Z,96519.16
2022-11-25T04:32:32.505Z,96518.97
2022-11-25T04:35:01.467Z,96506.63
2022-11-25T04:37:31.829Z,96507.41
2022-11-25T04:40:01.055Z,96505.63
2022-11-25T04:42:40.163Z,96498.47
2022-11-25T04:45:25.432Z,96493.84
2022-11-25T04:47:56.775Z,96489.88
2022-11-25T04:50:25.958Z,96486.50
2022-11-25T04:53:13.113Z,96482.69
2022-11-25T04:55:42.294Z,96486.69
2022-11-25T04:58:37.046Z,96481.91
2022-11-25T05:01:08.597Z,96473.72
2022-11-25T05:03:42.509Z,96479.31
2022-11-25T05:06:14.453Z,96452.00
2022-11-25T05:08:44.294Z,96465.75
2022-11-25T05:11:14.271Z,96450.41
2022-11-25T05:13:43.402Z,96453.53
2022-11-25T05:16:12.425Z,96455.50
2022-11-25T05:18:42.047Z,96452.88
2022-11-25T05:21:10.853Z,96436.91
2022-11-25T05:23:43.377Z,96443.72
2022-11-25T05:26:12.605Z,96435.19
2022-11-25T05:28:44.922Z,96443.41
2022-11-25T05:31:14.392Z,96450.75
2022-11-25T05:33:45.535Z,96427.22
2022-11-25T05:36:14.315Z,96434.75
2022-11-25T05:38:49.741Z,96428.13
2022-11-25T05:41:29.904Z,96428.69
2022-11-25T05:43:58.830Z,96430.06
2022-11-25T05:46:27.892Z,96423.88
2022-11-25T05:48:58.800Z,96417.06
2022-11-25T05:51:30.226Z,96415.88
2022-11-25T05:54:01.528Z,96417.63
2022-11-25T05:56:32.796Z,96407.03
2022-11-25T05:59:19.979Z,96409.84
2022-11-25T06:02:04.632Z,96406.47
2022-11-25T06:04:34.319Z,96401.69
2022-11-25T06:07:04.894Z,96401.72
2022-11-25T06:09:34.203Z,96395.50
2022-11-25T06:12:02.983Z,96387.47
2022-11-25T06:14:33.509Z,96388.59
2022-11-25T06:17:02.458Z,96386.13
2022-11-25T06:19:39.518Z,96385.13
2022-11-25T06:22:08.382Z,96384.34
2022-11-25T06:24:37.542Z,96376.59
2022-11-25T06:27:08.939Z,96375.06
2022-11-25T06:29:38.674Z,96372.25
2022-11-25T06:32:07.549Z,96366.72
2022-11-25T06:34:53.745Z,96361.69
2022-11-25T06:37:42.019Z,96357.81
2022-11-25T06:40:11.183Z,96353.19
2022-11-25T06:42:43.894Z,96351.72
2022-11-25T06:45:12.712Z,96336.13
2022-11-25T06:47:41.631Z,96350.66
2022-11-25T06:50:10.602Z,96345.94
2022-11-25T06:52:39.392Z,96331.56
2022-11-25T06:55:08.539Z,96330.72
2022-11-25T06:57:37.381Z,96326.31
2022-11-25T07:00:08.593Z,96321.13
2022-11-25T07:02:41.907Z,96323.72
2022-11-25T07:05:12.939Z,96316.56
2022-11-25T07:07:41.758Z,96319.59
2022-11-25T07:10:26.896Z,96305.84
2022-11-25T07:12:55.774Z,96319.22
2022-11-25T07:15:24.695Z,96297.53
2022-11-25T07:17:53.595Z,96296.28
2022-11-25T07:20:22.474Z,96304.28
2022-11-25T07:22:51.385Z,96300.56
2022-11-25T07:25:20.319Z,96290.63
2022-11-25T07:27:49.222Z,96290.88
2022-11-25T07:31:09.775Z,96298.81
2022-11-25T07:33:07.414Z,96292.88
2022-11-25T07:35:36.410Z,96279.03
2022-11-25T07:38:05.302Z,96303.75
2022-11-25T07:40:34.262Z,96293.84
2022-11-25T07:43:03.158Z,96295.25
2022-11-25T07:45:33.404Z,96285.94
2022-11-25T07:48:10.598Z,96280.47
2022-11-25T07:50:39.447Z,96276.31
2022-11-25T07:53:08.258Z,96269.94
2022-11-25T07:55:38.218Z,96278.50
2022-11-25T07:58:07.060Z,96271.34
2022-11-25T08:00:37.869Z,96270.53
2022-11-25T08:03:06.983Z,96259.78
2022-11-25T08:05:35.827Z,96263.78
2022-11-25T08:08:05.914Z,96263.34
2022-11-25T08:10:34.746Z,96246.84
2022-11-25T08:13:03.556Z,96247.66
2022-11-25T08:15:33.798Z,96241.50
2022-11-25T08:18:02.646Z,96252.69
2022-11-25T08:20:32.028Z,96241.91
2022-11-25T08:23:01.077Z,96241.53
2022-11-25T08:25:32.337Z,96237.38
2022-11-25T08:28:01.436Z,96229.19
2022-11-25T08:30:30.304Z,96220.03
2022-11-25T08:32:59.520Z,96223.59
2022-11-25T08:35:28.606Z,96234.16
2022-11-25T08:37:57.551Z,96223.38
2022-11-25T08:40:26.434Z,96221.22
2022-11-25T08:42:55.285Z,96229.38
2022-11-25T08:45:24.260Z,96206.09
2022-11-25T08:47:53.079Z,96210.47
2022-11-25T08:50:25.339Z,96202.09
2022-11-25T08:52:54.273Z,96215.63
2022-11-25T08:55:23.226Z,96210.06
2022-11-25T08:57:52.359Z,96202.66
2022-11-25T09:00:22.894Z,96205.66
2022-11-25T09:02:52.557Z,96204.66
2022-11-25T09:05:21.435Z,96200.06
2022-11-25T09:07:50.311Z,96196.47
2022-11-25T09:10:19.346Z,96180.38
2022-11-25T09:12:48.203Z,96186.31
2022-11-25T09:15:17.015Z,96179.53
2022-11-25T09:17:46.026Z,96171.78
2022-11-25T09:20:14.863Z,96176.19
2022-11-25T09:22:43.648Z,96181.38
2022-11-25T09:25:12.511Z,96172.22
2022-11-25T09:27:41.456Z,96175.03
2022-11-25T09:30:10.850Z,96180.38
2022-11-25T09:32:39.722Z,96177.97
2022-11-25T09:35:08.757Z,96177.34
2022-11-25T09:37:37.711Z,96174.78
2022-11-25T09:40:09.547Z,96166.41
2022-11-25T09:43:24.067Z,96179.34
2022-11-25T09:46:38.493Z,96175.38
2022-11-25T09:49:30.620Z,96173.59
2022-11-25T09:52:25.033Z,96165.63
2022-11-25T09:55:04.701Z,96164.81
2022-11-25T09:57:59.231Z,96159.81
2022-11-25T10:00:39.344Z,96143.72
2022-11-25T10:03:14.598Z,96154.25
2022-11-25T10:05:52.867Z,96140.91
2022-11-25T10:08:26.101Z,96143.53
2022-11-25T10:11:03.603Z,96139.19
2022-11-25T10:13:55.462Z,96132.63
2022-11-25T10:17:19.465Z,96133.00
2022-11-25T10:20:00.487Z,96124.25
2022-11-25T10:22:56.800Z,96118.09
2022-11-25T10:25:29.645Z,96114.91
2022-11-25T10:28:02.394Z,96102.59
2022-11-25T10:30:51.500Z,96092.84
2022-11-25T10:33:29.150Z,96109.72
2022-11-25T10:36:14.746Z,96096.38
2022-11-25T10:38:52.483Z,96082.81
2022-11-25T10:41:24.915Z,96080.59
2022-11-25T10:43:54.108Z,96076.41
2022-11-25T10:47:12.495Z,96069.03
2022-11-25T10:49:48.145Z,96078.19
2022-11-25T10:52:23.953Z,96073.00
2022-11-25T10:55:21.674Z,96052.31
2022-11-25T10:57:50.936Z,96066.25
2022-11-25T11:00:35.017Z,96067.59
2022-11-25T11:03:21.394Z,96058.59
2022-11-25T11:05:51.586Z,96057.38
2022-11-25T11:08:23.464Z,96054.22
2022-11-25T11:11:15.904Z,96043.25
2022-11-25T11:13:45.384Z,96038.09
2022-11-25T11:16:53.895Z,96043.09
2022-11-25T11:19:25.570Z,96035.53
2022-11-25T11:21:56.743Z,96029.94
2022-11-25T11:24:32.950Z,96027.34
2022-11-25T11:27:23.376Z,96030.50
2022-11-25T11:30:15.263Z,96021.09
2022-11-25T11:33:03.883Z,96015.09
2022-11-25T11:35:47.291Z,96000.97
2022-11-25T11:38:36.432Z,96003.53
2022-11-25T11:41:14.399Z,95997.75
2022-11-25T11:43:43.231Z,96003.31
2022-11-25T11:46:42.160Z,95995.97
2022-11-25T11:49:47.926Z,95970.94
2022-11-25T11:52:33.797Z,95985.44
2022-11-25T11:55:12.961Z,95985.88
2022-11-25T11:57:53.166Z,95986.06
2022-11-25T12:00:24.156Z,95980.13
2022-11-25T12:03:00.754Z,95978.13
2022-11-25T12:05:34.460Z,95972.53
2022-11-25T12:08:59.754Z,95971.75
2022-11-25T12:11:36.301Z,95962.81
2022-11-25T12:14:30.287Z,95962.75
2022-11-25T12:17:04.177Z,95962.53
2022-11-25T12:19:51.016Z,95958.94
2022-11-25T12:22:29.146Z,95952.75
2022-11-25T12:25:11.181Z,95955.34
2022-11-25T12:28:05.480Z,95939.38
2022-11-25T12:31:04.692Z,95939.75
2022-11-25T12:33:55.131Z,95923.03
2022-11-25T12:36:34.935Z,95924.59
2022-11-25T12:39:21.618Z,95916.59
2022-11-25T12:42:03.270Z,95905.41
2022-11-25T12:44:42.181Z,95913.13
2022-11-25T12:47:14.179Z,95907.38
2022-11-25T12:49:46.328Z,95910.13
2022-11-25T12:52:25.790Z,95905.34
2022-11-25T12:55:12.213Z,95889.09
2022-11-25T12:57:59.666Z,95899.38
2022-11-25T13:00:51.219Z,95900.00
2022-11-25T13:04:01.275Z,95894.22
2022-11-25T13:06:50.616Z,95879.09
2022-11-25T13:09:28.561Z,95884.28
2022-11-25T13:12:15.781Z,95883.47
2022-11-25T13:15:20.734Z,95876.72
2022-11-25T13:17:52.456Z,95875.13
2022-11-25T13:20:30.926Z,95861.19
2022-11-25T13:23:05.997Z,95857.22
2022-11-25T13:25:36.609Z,95853.09
2022-11-25T13:28:34.567Z,95851.09
2022-11-25T13:31:15.869Z,95845.91
2022-11-25T13:33:45.069Z,95848.84
2022-11-25T13:36:45.999Z,95843.22
2022-11-25T13:39:17.850Z,95837.03
2022-11-25T13:41:48.521Z,95832.22
2022-11-25T13:44:28.844Z,95828.22
2022-11-25T13:46:59.645Z,95830.34
2022-11-25T13:49:52.783Z,95818.00
2022-11-25T13:52:21.861Z,95821.16
2022-11-25T13:54:56.784Z,95811.38
2022-11-25T13:57:36.129Z,95812.66
2022-11-25T14:00:11.262Z,95806.03
2022-11-25T14:02:45.800Z,95800.03
2022-11-25T14:05:42.523Z,95800.63
2022-11-25T14:08:36.167Z,95800.84
2022-11-25T14:11:11.193Z,95796.22
2022-11-25T14:13:54.979Z,95800.16
2022-11-25T14:16:38.319Z,95797.34
2022-11-25T14:19:50.603Z,95788.91
2022-11-25T14:22:24.907Z,95783.06
2022-11-25T14:24:56.737Z,95783.44
2022-11-25T14:27:34.903Z,95759.16
2022-11-25T14:30:11.250Z,95768.22
2022-11-25T14:32:56.638Z,95769.34
2022-11-25T14:35:51.832Z,95766.91
2022-11-25T14:38:26.354Z,95745.88
2022-11-25T14:41:08.005Z,95752.34
2022-11-25T14:43:44.064Z,95749.88
2022-11-25T14:46:22.784Z,95745.16
2022-11-25T14:49:00.662Z,95750.47
2022-11-25T14:51:36.297Z,95738.28
2022-11-25T14:54:09.741Z,95733.78
2022-11-25T14:56:39.765Z,95739.31
2022-11-25T14:59:11.284Z,95722.25
2022-11-25T15:01:51.865Z,95722.75
2022-11-25T15:04:24.323Z,95731.66
2022-11-25T15:07:01.393Z,95724.47
2022-11-25T15:09:39.660Z,95720.41
2022-11-25T15:12:15.842Z,95720.28
2022-11-25T15:14:51.287Z,95717.56
2022-11-25T15:17:33.385Z,95714.75
2022-11-25T15:20:10.307Z,95711.94
2022-11-25T15:22:39.279Z,95688.22
2022-11-25T15:25:13.933Z,95707.19
2022-11-25T15:27:50.550Z,95678.78
2022-11-25T15:30:23.938Z,95691.28
2022-11-25T15:32:53.649Z,95690.16
2022-11-25T15:35:25.581Z,95696.81
2022-11-25T15:37:57.538Z,95686.19
2022-11-25T15:40:37.167Z,95693.53
2022-11-25T15:43:19.483Z,95690.84
2022-11-25T15:45:53.184Z,95690.94
2022-11-25T15:48:34.439Z,95699.31
2022-11-25T15:51:07.122Z,95689.69
2022-11-25T15:53:38.585Z,95678.19
2022-11-25T15:56:11.932Z,95683.16
2022-11-25T15:58:43.780Z,95668.63
2022-11-25T16:01:19.208Z,95676.41
2022-11-25T16:03:50.371Z,95668.72
2022-11-25T16:06:27.955Z,95671.09
2022-11-25T16:09:02.659Z,95675.47
2022-11-25T16:11:45.284Z,95665.66
2022-11-25T16:14:26.703Z,95664.19
2022-11-25T16:17:03.178Z,95665.09
2022-11-25T16:19:41.988Z,95660.00
2022-11-25T16:22:17.957Z,95657.50
2022-11-25T16:24:57.268Z,95659.56
2022-11-25T16:27:30.055Z,95640.25
2022-11-25T16:30:17.563Z,95650.88
2022-11-25T16:32:46.672Z,95637.78
2022-11-25T16:35:19.881Z,95639.00
2022-11-25T16:37:49.793Z,95634.28
2022-11-25T16:40:19.624Z,95623.78
2022-11-25T16:42:50.824Z,95628.72
2022-11-25T16:45:25.817Z,95625.13
2022-11-25T16:47:55.268Z,95622.63
2022-11-25T16:50:24.249Z,95630.09
2022-11-25T16:52:53.132Z,95618.34
2022-11-25T16:55:22.369Z,95612.50
2022-11-25T16:57:54.824Z,95604.13
2022-11-25T17:00:24.047Z,95617.75
2022-11-25T17:02:53.103Z,95610.09
2022-11-25T17:05:24.549Z,95602.75
2022-11-25T17:07:53.879Z,95599.38
2022-11-25T17:10:23.067Z,95598.03
2022-11-25T17:12:52.052Z,95604.00
2022-11-25T17:15:28.048Z,95609.41
2022-11-25T17:17:57.332Z,95592.50
2022-11-25T17:20:26.253Z,95591.91
2022-11-25T17:22:55.547Z,95591.72
2022-11-25T17:25:32.333Z,95588.31
2022-11-25T17:28:04.619Z,95583.25
2022-11-25T17:30:33.956Z,95573.34
2022-11-25T17:33:11.504Z,95582.47
2022-11-25T17:35:40.463Z,95580.53
2022-11-25T17:38:19.487Z,95574.13
2022-11-25T17:40:48.717Z,95576.25
2022-11-25T17:43:21.198Z,95576.25
2022-11-25T17:45:50.062Z,95568.16
2022-11-25T17:48:19.167Z,95564.56
2022-11-25T17:50:48.180Z,95552.03
2022-11-25T17:53:17.103Z,95564.56
2022-11-25T17:55:45.988Z,95567.50
2022-11-25T17:58:16.338Z,95566.94
2022-11-25T18:00:46.489Z,95567.72
2022-11-25T18:03:18.546Z,95557.81
2022-11-25T18:05:47.387Z,95559.59
2022-11-25T18:08:16.187Z,95565.91
2022-11-25T18:10:47.151Z,95556.78
2022-11-25T18:13:17.392Z,95558.56
2022-11-25T18:15:46.294Z,95551.38
2022-11-25T18:18:26.383Z,95542.25
2022-11-25T18:20:56.474Z,95547.44
2022-11-25T18:23:25.230Z,95545.84
2022-11-25T18:25:57.181Z,95543.47
2022-11-25T18:28:29.608Z,95537.94
2022-11-25T18:31:03.268Z,95530.03
2022-11-25T18:33:32.851Z,95537.94
2022-11-25T18:36:01.704Z,95534.56
2022-11-25T18:38:30.547Z,95541.44
2022-11-25T18:40:59.845Z,95537.41
2022-11-25T18:43:28.759Z,95530.41
2022-11-25T18:45:57.773Z,95527.81
2022-11-25T18:48:27.717Z,95530.63
2022-11-25T18:50:57.908Z,95530.41
2022-11-25T18:53:26.774Z,95524.66
2022-11-25T18:55:55.627Z,95528.59
2022-11-25T18:58:30.250Z,95514.72
2022-11-25T19:01:05.258Z,95519.44
2022-11-25T19:03:34.461Z,95523.94
2022-11-25T19:06:03.835Z,95525.41
2022-11-25T19:08:32.697Z,95517.50
2022-11-25T19:11:01.490Z,95512.75
2022-11-25T19:13:37.598Z,95510.59
2022-11-25T19:16:11.926Z,95493.16
2022-11-25T19:18:41.310Z,95508.22
2022-11-25T19:21:19.165Z,95505.28
2022-11-25T19:23:49.139Z,95492.66
2022-11-25T19:26:32.001Z,95493.31
2022-11-25T19:29:05.641Z,95500.00
2022-11-25T19:31:36.173Z,95493.47
2022-11-25T19:34:05.347Z,95489.72
2022-11-25T19:36:35.594Z,95485.78
2022-11-25T19:39:12.186Z,95470.69
2022-11-25T19:41:40.911Z,95472.47
2022-11-25T19:44:09.654Z,95466.97
2022-11-25T19:47:13.069Z,95473.72
2022-11-25T19:49:32.217Z,95468.53
2022-11-25T19:52:01.097Z,95474.16
2022-11-25T19:54:30.073Z,95470.88
2022-11-25T19:56:58.797Z,95466.69
2022-11-25T19:59:27.552Z,95466.25
2022-11-25T20:01:57.203Z,95467.13
2022-11-25T20:04:26.306Z,95470.72
2022-11-25T20:06:57.133Z,95448.94
2022-11-25T20:09:25.923Z,95453.03
2022-11-25T20:11:59.156Z,95462.53
2022-11-25T20:14:27.899Z,95454.19
2022-11-25T20:16:56.742Z,95449.47
2022-11-25T20:19:25.953Z,95450.38
2022-11-25T20:21:54.775Z,95445.41
2022-11-25T20:24:23.684Z,95445.66
2022-11-25T20:26:54.057Z,95447.66
2022-11-25T20:29:27.522Z,95451.25
2022-11-25T20:31:59.415Z,95453.72
2022-11-25T20:34:28.897Z,95443.47
2022-11-25T20:36:57.719Z,95437.75
2022-11-25T20:39:26.710Z,95443.47
2022-11-25T20:41:55.549Z,95445.88
2022-11-25T20:44:24.394Z,95439.88
2022-11-25T20:46:53.108Z,95436.81
2022-11-25T20:49:29.761Z,95428.47
2022-11-25T20:51:59.974Z,95420.03
2022-11-25T20:54:30.497Z,95421.63
2022-11-25T20:57:01.307Z,95431.22
2022-11-25T20:59:31.620Z,95429.91
2022-11-25T21:02:01.382Z,95419.81
2022-11-25T21:04:30.511Z,95430.97
2022-11-25T21:06:59.258Z,95422.41
2022-11-25T21:09:33.396Z,95425.81
2022-11-25T21:12:03.720Z,95426.44
2022-11-25T21:14:32.504Z,95417.63
2022-11-25T21:17:01.331Z,95416.91
2022-11-25T21:19:30.223Z,95415.84
2022-11-25T21:21:58.989Z,95416.06
2022-11-25T21:24:32.580Z,95422.22
2022-11-25T21:27:05.533Z,95416.19
2022-11-25T21:29:36.802Z,95424.31
2022-11-25T21:32:33.384Z,95414.63
2022-11-25T21:35:04.526Z,95411.09
2022-11-25T21:37:41.235Z,95425.16
2022-11-25T21:40:28.728Z,95421.22
2022-11-25T21:42:57.529Z,95419.63
2022-11-25T21:45:26.463Z,95421.84
2022-11-25T21:47:55.510Z,95415.91
2022-11-25T21:50:24.578Z,95417.50
2022-11-25T21:52:53.317Z,95405.81
2022-11-25T21:55:22.175Z,95407.72
2022-11-25T21:57:51.101Z,95410.09
2022-11-25T22:00:26.933Z,95409.66
2022-11-25T22:02:56.380Z,95407.22
2022-11-25T22:05:28.233Z,95398.69
2022-11-25T22:07:57.558Z,95400.06
2022-11-25T22:10:26.475Z,95396.59
2022-11-25T22:12:55.193Z,95397.41
2022-11-25T22:15:24.655Z,95398.78
2022-11-25T22:17:57.962Z,95407.44
2022-11-25T22:20:40.951Z,95398.81
2022-11-25T22:23:16.787Z,95399.31
2022-11-25T22:25:46.827Z,95392.72
2022-11-25T22:28:17.645Z,95385.06
2022-11-25T22:30:58.398Z,95399.50
2022-11-25T22:33:33.529Z,95390.16
2022-11-25T22:36:03.110Z,95398.28
2022-11-25T22:38:32.207Z,95394.47
2022-11-25T22:41:04.534Z,95397.28
2022-11-25T22:43:40.553Z,95400.88
2022-11-25T22:46:11.752Z,95408.63
2022-11-25T22:48:40.693Z,95397.72
2022-11-25T22:51:22.076Z,95395.16
2022-11-25T22:53:50.819Z,95396.16
2022-11-25T22:56:20.577Z,95407.63
2022-11-25T22:58:49.432Z,95398.16
2022-11-25T23:01:18.927Z,95400.72
2022-11-25T23:03:48.007Z,95393.84
2022-11-25T23:06:16.847Z,95401.63
2022-11-25T23:08:45.661Z,95405.19
2022-11-25T23:11:21.328Z,95411.81
2022-11-25T23:13:50.116Z,95405.50
2022-11-25T23:16:18.910Z,95414.25
2022-11-25T23:18:48.113Z,95411.09
2022-11-25T23:21:23.654Z,95411.97
2022-11-25T23:23:53.170Z,95411.97
2022-11-25T23:26:22.045Z,95409.22
2022-11-25T23:28:50.841Z,95408.59
2022-11-25T23:31:20.228Z,95401.84
2022-11-25T23:33:52.703Z,95406.09
2022-11-25T23:36:26.042Z,95410.66
2022-11-25T23:38:57.910Z,95406.72
2022-11-25T23:41:29.565Z,95410.53
2022-11-25T23:44:19.340Z,95400.06
2022-11-25T23:46:49.363Z,95404.00
2022-11-25T23:49:40.421Z,95407.75
2022-11-25T23:52:13.677Z,95407.53
2022-11-25T23:54:46.129Z,95406.16
2022-11-25T23:57:20.570Z,95407.16
2022-11-25T23:59:51.550Z,95414.69
